createdAt,value
2019-05-28T00:00:10.255Z,13.00
2019-05-28T00:02:39.977Z,12.13
2019-05-28T00:05:10.107Z,15.17
2019-05-28T00:07:39.514Z,12.10
2019-05-28T00:10:09.627Z,11.77
2019-05-28T00:12:40.515Z,12.43
2019-05-28T00:15:10.596Z,12.67
2019-05-28T00:17:39.989Z,15.00
2019-05-28T00:20:09.949Z,11.20
2019-05-28T00:22:39.265Z,16.00
2019-05-28T00:25:09.309Z,12.53
2019-05-28T00:27:38.739Z,13.70
2019-05-28T00:30:19.175Z,15.33
2019-05-28T00:32:39.812Z,13.23
2019-05-28T00:35:09.836Z,12.50
2019-05-28T00:37:39.153Z,12.03
2019-05-28T00:40:09.370Z,14.33
2019-05-28T00:42:42.431Z,16.30
2019-05-28T00:45:12.912Z,16.37
2019-05-28T00:47:42.333Z,13.73
2019-05-28T00:50:12.656Z,11.03
2019-05-28T00:52:42.023Z,12.70
2019-05-28T00:55:13.607Z,15.07
2019-05-28T00:57:45.871Z,19.67
2019-05-28T01:00:15.686Z,14.87
2019-05-28T01:02:45.105Z,12.30
2019-05-28T01:05:14.647Z,12.00
2019-05-28T01:07:44.062Z,13.90
2019-05-28T01:10:13.970Z,12.70
2019-05-28T01:12:43.404Z,12.80
2019-05-28T01:15:12.811Z,10.40
2019-05-28T01:17:42.216Z,13.10
2019-05-28T01:20:11.694Z,10.90
2019-05-28T01:22:41.313Z,15.40
2019-05-28T01:25:16.517Z,10.50
2019-05-28T01:27:44.383Z,11.73
2019-05-28T01:30:13.910Z,11.67
2019-05-28T01:32:43.306Z,12.57
2019-05-28T01:35:12.654Z,9.47
2019-05-28T01:37:42.049Z,9.93
2019-05-28T01:40:12.279Z,10.10
2019-05-28T01:42:41.659Z,13.20
2019-05-28T01:45:11.590Z,12.27
2019-05-28T01:47:40.980Z,15.40
2019-05-28T01:50:12.504Z,14.70
2019-05-28T01:52:41.921Z,16.47
2019-05-28T01:55:11.659Z,20.30
2019-05-28T01:57:41.015Z,15.93
2019-05-28T02:00:12.471Z,20.47
2019-05-28T02:02:41.836Z,15.93
2019-05-28T02:05:11.814Z,16.03
2019-05-28T02:07:41.078Z,16.30
2019-05-28T02:10:12.401Z,14.70
2019-05-28T02:12:41.814Z,16.50
2019-05-28T02:15:11.718Z,15.97
2019-05-28T02:17:41.131Z,16.90
2019-05-28T02:20:10.971Z,12.93
2019-05-28T02:22:40.506Z,12.37
2019-05-28T02:25:10.942Z,12.20
2019-05-28T02:27:40.355Z,10.50
2019-05-28T02:30:11.173Z,11.50
2019-05-28T02:32:40.641Z,6.50
2019-05-28T02:35:10.863Z,9.13
2019-05-28T02:37:40.184Z,6.57
2019-05-28T02:40:10.209Z,6.33
2019-05-28T02:42:39.541Z,9.10
2019-05-28T02:45:09.894Z,8.00
2019-05-28T02:47:39.306Z,9.87
2019-05-28T02:50:11.593Z,9.83
2019-05-28T02:52:42.396Z,8.00
2019-05-28T02:55:12.780Z,10.27
2019-05-28T02:57:43.196Z,9.70
2019-05-28T03:00:13.920Z,10.80
2019-05-28T03:02:47.156Z,9.90
2019-05-28T03:05:17.598Z,11.30
2019-05-28T03:07:47.695Z,11.37
2019-05-28T03:10:26.152Z,11.00
2019-05-28T03:12:55.565Z,11.80
2019-05-28T03:15:24.822Z,15.33
2019-05-28T03:17:56.043Z,11.27
2019-05-28T03:20:25.984Z,13.30
2019-05-28T03:22:55.881Z,11.23
2019-05-28T03:25:25.303Z,11.73
2019-05-28T03:27:54.813Z,12.00
2019-05-28T03:30:24.426Z,11.57
2019-05-28T03:32:53.759Z,16.20
2019-05-28T03:35:25.027Z,15.73
2019-05-28T03:37:55.870Z,18.03
2019-05-28T03:40:40.784Z,15.67
2019-05-28T03:43:10.184Z,14.00
2019-05-28T03:45:39.562Z,15.93
2019-05-28T03:48:08.855Z,18.40
2019-05-28T03:50:38.220Z,19.50
2019-05-28T03:53:07.590Z,18.40
2019-05-28T03:55:37.009Z,18.73
2019-05-28T03:58:06.391Z,17.57
2019-05-28T04:00:35.758Z,17.63
2019-05-28T04:03:05.179Z,18.50
2019-05-28T04:05:34.612Z,22.53
2019-05-28T04:08:04.100Z,20.37
2019-05-28T04:10:33.519Z,19.67
2019-05-28T04:13:02.883Z,21.23
2019-05-28T04:15:32.505Z,21.50
2019-05-28T04:18:01.900Z,22.50
2019-05-28T04:20:31.234Z,24.83
2019-05-28T04:23:02.324Z,24.23
2019-05-28T04:25:31.660Z,26.30
2019-05-28T04:28:01.106Z,21.40
2019-05-28T04:30:30.515Z,29.80
2019-05-28T04:33:00.238Z,23.80
2019-05-28T04:35:29.696Z,21.63
2019-05-28T04:37:59.110Z,22.17
2019-05-28T04:40:28.558Z,22.43
2019-05-28T04:42:57.980Z,22.10
2019-05-28T04:45:27.504Z,20.07
2019-05-28T04:47:56.928Z,22.20
2019-05-28T04:50:26.227Z,24.23
2019-05-28T04:52:55.556Z,20.80
2019-05-28T04:55:25.073Z,22.70
2019-05-28T04:57:54.390Z,17.77
2019-05-28T05:00:23.813Z,16.67
2019-05-28T05:02:59.551Z,16.57
2019-05-28T05:05:24.469Z,22.20
2019-05-28T05:07:53.741Z,16.03
2019-05-28T05:10:23.066Z,14.20
2019-05-28T05:12:52.374Z,16.17
2019-05-28T05:15:21.813Z,13.33
2019-05-28T05:17:51.213Z,12.63
2019-05-28T05:20:20.603Z,12.00
2019-05-28T05:22:49.997Z,9.40
2019-05-28T05:25:19.615Z,8.20
2019-05-28T05:27:49.039Z,8.70
2019-05-28T05:30:18.346Z,7.90
2019-05-28T05:32:47.742Z,8.90
2019-05-28T05:35:17.155Z,6.60
2019-05-28T05:37:46.592Z,7.63
2019-05-28T05:40:16.273Z,7.93
2019-05-28T05:42:45.673Z,7.80
2019-05-28T05:45:15.167Z,7.80
2019-05-28T05:47:44.571Z,7.23
2019-05-28T05:50:14.650Z,4.90
2019-05-28T05:52:44.053Z,4.43
2019-05-28T05:55:13.647Z,4.97
2019-05-28T05:57:43.040Z,4.57
2019-05-28T06:00:13.107Z,4.43
2019-05-28T06:02:42.560Z,6.57
2019-05-28T06:05:11.923Z,6.00
2019-05-28T06:07:41.324Z,5.80
2019-05-28T06:10:11.027Z,4.80
2019-05-28T06:12:40.316Z,4.77
2019-05-28T06:15:09.725Z,7.00
2019-05-28T06:17:39.038Z,5.00
2019-05-28T06:20:09.206Z,5.20
2019-05-28T06:22:38.540Z,5.10
2019-05-28T06:25:08.616Z,5.43
2019-05-28T06:27:37.980Z,4.00
2019-05-28T06:30:08.314Z,3.63
2019-05-28T06:32:38.602Z,4.20
2019-05-28T06:35:08.550Z,2.97
2019-05-28T06:37:38.596Z,3.97
2019-05-28T06:40:08.699Z,3.20
2019-05-28T06:42:39.594Z,5.63
2019-05-28T06:45:09.110Z,7.13
2019-05-28T06:47:38.541Z,5.83
2019-05-28T06:50:09.557Z,9.00
2019-05-28T06:52:39.052Z,7.50
2019-05-28T06:55:09.273Z,8.17
2019-05-28T06:57:38.686Z,8.03
2019-05-28T07:00:08.924Z,7.33
2019-05-28T07:02:38.417Z,10.00
2019-05-28T07:05:08.450Z,7.80
2019-05-28T07:07:37.725Z,12.73
2019-05-28T07:10:08.041Z,8.10
2019-05-28T07:12:38.568Z,11.33
2019-05-28T07:15:08.511Z,5.63
2019-05-28T07:17:37.955Z,5.90
2019-05-28T07:20:08.816Z,5.47
2019-05-28T07:22:38.228Z,4.10
2019-05-28T07:25:08.429Z,4.87
2019-05-28T07:27:37.833Z,3.50
2019-05-28T07:30:08.154Z,6.40
2019-05-28T07:32:37.488Z,5.13
2019-05-28T07:35:06.997Z,5.00
2019-05-28T07:37:36.694Z,2.10
2019-05-28T07:40:06.756Z,3.23
2019-05-28T07:42:36.030Z,3.40
2019-05-28T07:45:06.468Z,3.43
2019-05-28T07:47:35.737Z,4.60
2019-05-28T07:50:05.528Z,9.70
2019-05-28T07:52:34.910Z,5.20
2019-05-28T07:55:04.816Z,7.00
2019-05-28T07:57:34.612Z,21.03
2019-05-28T08:00:06.535Z,6.93
2019-05-28T08:02:36.323Z,7.23
2019-05-28T08:05:06.737Z,3.17
2019-05-28T08:07:36.145Z,27.57
2019-05-28T08:10:06.326Z,3.27
2019-05-28T08:12:36.088Z,2.00
2019-05-28T08:15:06.294Z,2.70
2019-05-28T08:17:35.637Z,2.80
2019-05-28T08:20:05.970Z,2.13
2019-05-28T08:22:42.309Z,5.43
2019-05-28T08:25:23.641Z,5.60
2019-05-28T08:27:37.929Z,5.90
2019-05-28T08:30:07.715Z,3.47
2019-05-28T08:32:37.119Z,3.47
2019-05-28T08:35:06.812Z,3.03
2019-05-28T08:37:36.197Z,1.40
2019-05-28T08:40:06.448Z,1.60
2019-05-28T08:42:35.873Z,2.07
2019-05-28T08:45:07.089Z,2.40
2019-05-28T08:47:36.774Z,3.70
2019-05-28T08:50:07.065Z,3.70
2019-05-28T08:52:36.339Z,1.90
2019-05-28T08:55:05.995Z,8.93
2019-05-28T08:57:35.387Z,2.00
2019-05-28T09:00:09.106Z,2.80
2019-05-28T09:02:38.510Z,2.50
2019-05-28T09:05:25.041Z,1.20
2019-05-28T09:07:39.725Z,9.20
2019-05-28T09:10:09.472Z,4.23
2019-05-28T09:12:38.924Z,15.70
2019-05-28T09:15:08.676Z,1.73
2019-05-28T09:17:39.608Z,22.97
2019-05-28T09:20:09.001Z,2.30
2019-05-28T09:22:38.421Z,1.57
2019-05-28T09:25:08.048Z,1.20
2019-05-28T09:27:37.427Z,1.60
2019-05-28T09:30:07.289Z,1.47
2019-05-28T09:32:36.924Z,4.10
2019-05-28T09:35:09.186Z,1.60
2019-05-28T09:37:39.048Z,1.83
2019-05-28T09:40:09.544Z,2.03
2019-05-28T09:42:38.928Z,3.40
2019-05-28T09:45:22.054Z,4.80
2019-05-28T09:47:41.250Z,2.53
2019-05-28T09:50:29.252Z,3.03
2019-05-28T09:52:53.668Z,3.03
2019-05-28T09:55:13.971Z,3.40
2019-05-28T09:57:47.219Z,2.20
2019-05-28T10:00:18.317Z,3.00
2019-05-28T10:02:47.673Z,4.43
2019-05-28T10:05:17.390Z,9.00
2019-05-28T10:07:46.796Z,4.83
2019-05-28T10:10:16.592Z,3.90
2019-05-28T10:12:46.118Z,2.90
2019-05-28T10:15:16.578Z,6.73
2019-05-28T10:17:47.562Z,5.93
2019-05-28T10:20:18.002Z,5.10
2019-05-28T10:22:47.394Z,8.20
2019-05-28T10:25:17.517Z,4.77
2019-05-28T10:28:00.324Z,2.97
2019-05-28T10:30:18.958Z,2.97
2019-05-28T10:32:49.582Z,1.93
2019-05-28T10:35:20.146Z,2.57
2019-05-28T10:37:49.555Z,3.40
2019-05-28T10:40:20.960Z,3.43
2019-05-28T10:42:50.417Z,3.40
2019-05-28T10:45:20.486Z,3.03
2019-05-28T10:47:49.916Z,2.67
2019-05-28T10:50:19.528Z,2.90
2019-05-28T10:52:48.907Z,7.10
2019-05-28T10:55:18.258Z,2.47
2019-05-28T10:57:47.632Z,3.10
2019-05-28T11:00:17.966Z,2.60
2019-05-28T11:02:47.363Z,2.93
2019-05-28T11:05:17.491Z,5.20
2019-05-28T11:07:46.882Z,7.60
2019-05-28T11:10:24.287Z,4.37
2019-05-28T11:12:49.117Z,3.03
2019-05-28T11:15:24.212Z,2.67
2019-05-28T11:17:53.582Z,1.97
2019-05-28T11:20:23.744Z,1.97
2019-05-28T11:22:53.144Z,4.43
2019-05-28T11:25:22.917Z,4.40
2019-05-28T11:27:52.321Z,2.20
2019-05-28T11:30:22.510Z,6.13
2019-05-28T11:32:51.866Z,2.47
2019-05-28T11:35:21.556Z,2.77
2019-05-28T11:37:50.992Z,3.67
2019-05-28T11:40:21.026Z,2.93
2019-05-28T11:42:50.452Z,13.93
2019-05-28T11:45:20.196Z,4.33
2019-05-28T11:47:50.956Z,6.53
2019-05-28T11:50:21.271Z,7.20
2019-05-28T11:52:50.684Z,7.60
2019-05-28T11:55:20.486Z,5.27
2019-05-28T11:57:49.794Z,5.50
2019-05-28T12:00:20.275Z,5.40
2019-05-28T12:02:49.796Z,10.63
2019-05-28T12:05:20.016Z,10.37
2019-05-28T12:07:51.721Z,11.70
2019-05-28T12:10:22.522Z,13.77
2019-05-28T12:12:51.900Z,13.17
2019-05-28T12:15:21.502Z,18.83
2019-05-28T12:17:50.925Z,16.97
2019-05-28T12:20:21.507Z,19.03
2019-05-28T12:23:09.083Z,18.30
2019-05-28T12:25:22.696Z,29.83
2019-05-28T12:27:52.115Z,20.03
2019-05-28T12:30:22.287Z,25.33
2019-05-28T12:32:51.676Z,17.23
2019-05-28T12:35:30.479Z,16.00
2019-05-28T12:37:54.106Z,22.03
2019-05-28T12:40:23.948Z,19.57
2019-05-28T12:42:53.326Z,17.37
2019-05-28T12:45:34.831Z,14.50
2019-05-28T12:48:10.233Z,16.50
2019-05-28T12:50:26.678Z,21.67
2019-05-28T12:52:56.102Z,20.93
2019-05-28T12:55:26.744Z,14.80
2019-05-28T12:57:56.175Z,28.20
2019-05-28T13:00:26.699Z,12.30
2019-05-28T13:02:56.141Z,15.43
2019-05-28T13:05:27.711Z,16.90
2019-05-28T13:08:08.653Z,14.37
2019-05-28T13:10:28.073Z,16.87
2019-05-28T13:12:57.487Z,12.60
2019-05-28T13:15:26.816Z,15.07
2019-05-28T13:17:56.175Z,13.43
2019-05-28T13:20:25.656Z,14.67
2019-05-28T13:22:55.099Z,13.97
2019-05-28T13:25:24.540Z,14.43
2019-05-28T13:27:54.028Z,12.20
2019-05-28T13:30:24.252Z,13.20
2019-05-28T13:32:53.758Z,11.60
2019-05-28T13:35:24.003Z,11.97
2019-05-28T13:37:53.558Z,13.40
2019-05-28T13:40:23.286Z,14.73
2019-05-28T13:42:52.851Z,13.73
2019-05-28T13:45:23.113Z,13.80
2019-05-28T13:47:52.651Z,18.60
2019-05-28T13:50:23.869Z,15.07
2019-05-28T13:52:53.191Z,16.60
2019-05-28T13:55:22.736Z,13.83
2019-05-28T13:57:52.106Z,16.43
2019-05-28T14:00:23.307Z,15.77
2019-05-28T14:02:53.137Z,20.40
2019-05-28T14:05:22.547Z,22.07
2019-05-28T14:07:52.007Z,37.63
2019-05-28T14:10:23.040Z,22.87
2019-05-28T14:12:52.472Z,27.70
2019-05-28T14:15:22.579Z,22.03
2019-05-28T14:17:52.093Z,19.13
2019-05-28T14:20:22.289Z,19.00
2019-05-28T14:22:51.706Z,15.57
2019-05-28T14:25:23.134Z,18.40
2019-05-28T14:27:52.716Z,18.10
2019-05-28T14:30:24.185Z,20.43
2019-05-28T14:32:53.763Z,11.93
2019-05-28T14:35:23.179Z,13.20
2019-05-28T14:37:52.617Z,10.97
2019-05-28T14:40:24.848Z,11.37
2019-05-28T14:42:53.074Z,13.30
2019-05-28T14:45:23.047Z,15.60
2019-05-28T14:47:52.731Z,15.60
2019-05-28T14:50:22.583Z,17.33
2019-05-28T14:52:52.023Z,21.07
2019-05-28T14:55:21.552Z,10.83
2019-05-28T14:57:50.938Z,13.93
2019-05-28T15:00:21.160Z,11.73
2019-05-28T15:02:50.487Z,11.87
2019-05-28T15:05:20.723Z,14.90
2019-05-28T15:07:49.921Z,14.47
2019-05-28T15:10:19.789Z,19.97
2019-05-28T15:12:49.250Z,19.93
2019-05-28T15:15:34.469Z,16.63
2019-05-28T15:17:51.203Z,20.83
2019-05-28T15:20:20.711Z,27.03
2019-05-28T15:22:50.154Z,11.10
2019-05-28T15:25:20.073Z,12.73
2019-05-28T15:27:49.566Z,15.20
2019-05-28T15:30:19.822Z,9.27
2019-05-28T15:32:49.246Z,13.80
2019-05-28T15:35:18.847Z,11.67
2019-05-28T15:37:48.237Z,11.10
2019-05-28T15:40:18.389Z,14.33
2019-05-28T15:42:47.789Z,9.17
2019-05-28T15:45:18.162Z,5.50
2019-05-28T15:47:47.589Z,9.33
2019-05-28T15:50:17.574Z,6.43
2019-05-28T15:52:46.990Z,11.80
2019-05-28T15:55:16.600Z,8.20
2019-05-28T15:57:46.034Z,13.13
2019-05-28T16:00:19.555Z,8.77
2019-05-28T16:02:48.978Z,7.87
2019-05-28T16:05:19.838Z,7.60
2019-05-28T16:07:49.169Z,18.27
2019-05-28T16:10:19.080Z,11.87
2019-05-28T16:12:50.289Z,10.77
2019-05-28T16:15:19.671Z,9.10
2019-05-28T16:17:49.166Z,52.93
2019-05-28T16:20:19.065Z,13.33
2019-05-28T16:22:48.422Z,9.30
2019-05-28T16:25:18.864Z,9.23
2019-05-28T16:27:48.476Z,10.70
2019-05-28T16:30:18.464Z,10.90
2019-05-28T16:32:47.888Z,9.40
2019-05-28T16:35:20.573Z,11.63
2019-05-28T16:37:50.489Z,10.90
2019-05-28T16:40:20.406Z,9.70
2019-05-28T16:42:49.859Z,13.10
2019-05-28T16:45:19.704Z,10.67
2019-05-28T16:47:49.107Z,14.73
2019-05-28T16:50:20.450Z,11.57
2019-05-28T16:52:49.957Z,18.43
2019-05-28T16:55:19.886Z,15.33
2019-05-28T16:57:50.866Z,13.00
2019-05-28T17:00:20.556Z,11.67
2019-05-28T17:02:50.021Z,13.70
2019-05-28T17:05:19.416Z,12.63
2019-05-28T17:07:48.859Z,12.73
2019-05-28T17:10:32.493Z,14.80
2019-05-28T17:12:49.357Z,13.80
2019-05-28T17:15:19.624Z,17.10
2019-05-28T17:17:49.379Z,12.53
2019-05-28T17:20:19.213Z,8.87
2019-05-28T17:22:48.613Z,11.27
2019-05-28T17:25:20.864Z,17.57
2019-05-28T17:27:50.326Z,11.37
2019-05-28T17:30:23.974Z,10.37
2019-05-28T17:33:10.859Z,10.60
2019-05-28T17:35:40.267Z,6.37
2019-05-28T17:38:09.678Z,14.13
2019-05-28T17:40:47.974Z,6.77
2019-05-28T17:43:10.359Z,6.93
2019-05-28T17:45:40.101Z,9.60
2019-05-28T17:48:10.041Z,6.83
2019-05-28T17:50:39.505Z,12.83
2019-05-28T17:53:08.917Z,6.00
2019-05-28T17:55:38.317Z,5.30
2019-05-28T17:58:07.706Z,4.10
2019-05-28T18:00:37.126Z,5.17
2019-05-28T18:03:06.559Z,3.33
2019-05-28T18:05:35.980Z,4.37
2019-05-28T18:08:05.730Z,2.90
2019-05-28T18:10:35.464Z,4.90
2019-05-28T18:13:04.910Z,5.70
2019-05-28T18:15:34.254Z,9.53
2019-05-28T18:18:03.694Z,4.50
2019-05-28T18:20:34.991Z,4.00
2019-05-28T18:23:05.383Z,8.50
2019-05-28T18:25:34.977Z,4.30
2019-05-28T18:28:04.489Z,3.43
2019-05-28T18:30:33.873Z,5.13
2019-05-28T18:33:03.621Z,4.30
2019-05-28T18:35:34.456Z,3.23
2019-05-28T18:38:06.216Z,2.87
2019-05-28T18:40:35.600Z,4.97
2019-05-28T18:43:05.023Z,4.30
2019-05-28T18:45:34.789Z,4.50
2019-05-28T18:48:04.220Z,4.80
2019-05-28T18:50:34.002Z,2.83
2019-05-28T18:53:03.406Z,3.93
2019-05-28T18:55:32.871Z,8.10
2019-05-28T18:58:03.642Z,2.47
2019-05-28T19:00:33.161Z,4.57
2019-05-28T19:03:02.589Z,3.20
2019-05-28T19:05:31.901Z,3.17
2019-05-28T19:08:01.323Z,3.60
2019-05-28T19:10:30.751Z,3.03
2019-05-28T19:13:00.475Z,1.77
2019-05-28T19:15:30.323Z,3.90
2019-05-28T19:18:00.042Z,6.50
2019-05-28T19:20:34.964Z,2.37
2019-05-28T19:23:04.609Z,2.70
2019-05-28T19:25:35.303Z,5.23
2019-05-28T19:28:04.758Z,4.20
2019-05-28T19:30:35.565Z,4.80
2019-05-28T19:33:06.205Z,3.20
2019-05-28T19:35:35.555Z,2.43
2019-05-28T19:38:05.176Z,2.80
2019-05-28T19:40:37.232Z,2.57
2019-05-28T19:43:06.911Z,2.50
2019-05-28T19:45:37.055Z,2.70
2019-05-28T19:48:07.462Z,10.83
2019-05-28T19:50:37.939Z,10.80
2019-05-28T19:53:07.273Z,4.40
2019-05-28T19:55:36.667Z,3.73
2019-05-28T19:58:06.599Z,2.77
2019-05-28T20:00:35.923Z,3.00
2019-05-28T20:03:05.418Z,2.90
2019-05-28T20:05:34.708Z,3.30
2019-05-28T20:08:03.986Z,5.00
2019-05-28T20:10:33.260Z,3.20
2019-05-28T20:13:04.563Z,2.60
2019-05-28T20:15:33.767Z,5.23
2019-05-28T20:18:03.034Z,3.57
2019-05-28T20:20:32.227Z,2.83
2019-05-28T20:23:01.510Z,10.60
2019-05-28T20:25:30.706Z,3.87
2019-05-28T20:28:00.081Z,2.40
2019-05-28T20:30:29.435Z,6.93
2019-05-28T20:32:59.094Z,4.10
2019-05-28T20:35:30.926Z,3.33
2019-05-28T20:37:59.669Z,4.53
2019-05-28T20:40:28.957Z,2.20
2019-05-28T20:42:58.327Z,3.13
2019-05-28T20:45:27.627Z,1.73
2019-05-28T20:47:56.963Z,1.80
2019-05-28T20:50:26.359Z,3.87
2019-05-28T20:52:55.579Z,2.77
2019-05-28T20:55:24.892Z,2.07
2019-05-28T20:57:55.286Z,1.80
2019-05-28T21:00:25.263Z,4.57
2019-05-28T21:02:55.752Z,2.23
2019-05-28T21:05:25.206Z,4.63
2019-05-28T21:07:56.165Z,4.20
2019-05-28T21:10:25.886Z,2.20
2019-05-28T21:12:55.214Z,2.17
2019-05-28T21:15:25.249Z,2.10
2019-05-28T21:17:55.435Z,4.07
2019-05-28T21:20:25.376Z,4.07
2019-05-28T21:22:55.773Z,3.17
2019-05-28T21:25:25.428Z,2.30
2019-05-28T21:27:56.517Z,2.77
2019-05-28T21:30:26.093Z,3.67
2019-05-28T21:32:55.376Z,6.93
2019-05-28T21:35:24.655Z,9.73
2019-05-28T21:37:55.013Z,6.67
2019-05-28T21:40:24.673Z,4.30
2019-05-28T21:43:03.393Z,5.40
2019-05-28T21:45:25.295Z,3.43
2019-05-28T21:47:54.575Z,4.10
2019-05-28T21:50:23.861Z,5.70
2019-05-28T21:52:53.218Z,5.33
2019-05-28T21:55:22.724Z,3.13
2019-05-28T21:57:52.028Z,1.53
2019-05-28T22:00:29.133Z,3.67
2019-05-28T22:02:58.591Z,2.90
2019-05-28T22:05:28.188Z,3.73
2019-05-28T22:07:57.431Z,1.53
2019-05-28T22:10:26.568Z,3.37
2019-05-28T22:12:55.871Z,2.53
2019-05-28T22:15:25.128Z,1.47
2019-05-28T22:17:54.486Z,2.13
2019-05-28T22:20:23.721Z,3.27
2019-05-28T22:22:52.994Z,2.90
2019-05-28T22:25:22.305Z,2.10
2019-05-28T22:27:51.568Z,3.73
2019-05-28T22:30:22.383Z,3.10
2019-05-28T22:32:51.655Z,1.70
2019-05-28T22:35:21.070Z,4.83
2019-05-28T22:37:50.341Z,4.80
2019-05-28T22:40:20.123Z,6.17
2019-05-28T22:42:49.423Z,3.27
2019-05-28T22:45:18.703Z,3.50
2019-05-28T22:47:48.078Z,4.40
2019-05-28T22:50:22.979Z,3.80
2019-05-28T22:52:49.137Z,3.20
2019-05-28T22:55:18.818Z,2.30
2019-05-28T22:57:48.384Z,4.33
2019-05-28T23:00:19.863Z,3.97
2019-05-28T23:02:49.606Z,4.73
2019-05-28T23:05:19.359Z,3.47
2019-05-28T23:07:49.032Z,5.53
2019-05-28T23:10:18.425Z,5.27
2019-05-28T23:12:47.685Z,3.57
2019-05-28T23:15:17.348Z,2.67
2019-05-28T23:17:46.721Z,6.87
2019-05-28T23:20:16.343Z,4.03
2019-05-28T23:22:45.637Z,5.10
2019-05-28T23:25:15.544Z,5.13
2019-05-28T23:27:44.899Z,4.90
2019-05-28T23:30:23.304Z,4.50
2019-05-28T23:32:45.317Z,2.13
2019-05-28T23:35:14.439Z,3.17
2019-05-28T23:37:43.623Z,2.80
2019-05-28T23:40:13.360Z,2.90
2019-05-28T23:42:43.136Z,2.00
2019-05-28T23:45:13.851Z,33.80
2019-05-28T23:47:43.367Z,1.83
2019-05-28T23:50:17.667Z,2.07
2019-05-28T23:52:45.528Z,1.97
2019-05-28T23:55:15.031Z,1.90
2019-05-28T23:57:44.689Z,2.40
